Terminal Aerodrome Forecast
Issued by NWS

Home | Current Version | Previous Version | Text Only | Print | Product List | Glossary On
Versions: 1 2 3 4 5 6 7 8 9 10 11 12 13 14 15 16 17 18 19 20 21 22 23 24 25 26 27 28 29 30
000
FTUS44 KHGX 201409 AAB
TAFUTS
TAF AMD
KUTS 201409Z 2014/2112 25005KT P6SM SCT010
      TEMPO 2014/2015 BKN010
     FM202100 12004KT P6SM VCTS SCT040CB
      TEMPO 2022/2024 TSRA
     FM210100 14004KT P6SM SCT040
     FM210300 VRB02KT P6SM SKC=

USA.gov is the U.S. government's official web portal to all federal, state and local government web resources and services.